Time;durP1;ratioP1;P1;durP2;ratioP2;P2;SDS_P1;SDS_P2;PMS_P1;PMS_P2;Temp;Humidity;BMP_temperature;BMP_pressure;BME280_temperature;BME280_humidity;BME280_pressure;Samples;Min_cycle;Max_cycle;Signal;HPM_P1;HPM_P2
2021/01/11 00:00:42;;;;;;;0.20;0.20;;;-2.30;99.90;;;;;;6240361;23;20003;-87
2021/01/11 00:03:11;;;;;;;0.20;0.20;;;-2.50;99.90;;;;;;6239635;23;20007;-88
2021/01/11 00:05:37;;;;;;;0.30;0.30;;;-2.70;99.90;;;;;;6240201;23;20023;-88
2021/01/11 00:08:03;;;;;;;0.15;0.15;;;-2.60;99.90;;;;;;6212880;23;20058;-88
2021/01/11 00:10:29;;;;;;;0.30;0.30;;;-2.40;99.90;;;;;;6240093;23;20008;-88
2021/01/11 00:12:55;;;;;;;0.13;0.13;;;-2.40;99.90;;;;;;6239339;23;20072;-89
2021/01/11 00:15:21;;;;;;;0.30;0.30;;;-2.20;99.90;;;;;;6212759;23;20069;-89
2021/01/11 00:17:46;;;;;;;0.20;0.20;;;-2.30;99.90;;;;;;6240038;23;20008;-88
2021/01/11 00:20:13;;;;;;;0.25;0.25;;;-2.30;99.90;;;;;;6213007;23;20283;-88
2021/01/11 00:22:46;;;;;;;0.15;0.15;;;-2.50;99.90;;;;;;6239446;23;20007;-88
2021/01/11 00:25:15;;;;;;;0.73;0.68;;;-2.20;99.90;;;;;;6212530;23;20012;-88
2021/01/11 00:27:48;;;;;;;0.20;0.20;;;-1.90;99.90;;;;;;6212860;23;20000;-89
2021/01/11 00:30:17;;;;;;;0.93;0.93;;;-1.80;99.90;;;;;;6212665;23;20011;-88
2021/01/11 00:32:43;;;;;;;0.10;0.10;;;-1.80;99.90;;;;;;6240137;22;20008;-88
2021/01/11 00:35:09;;;;;;;1.00;1.00;;;-2.00;99.90;;;;;;6212498;23;20012;-88
2021/01/11 00:37:36;;;;;;;0.20;0.20;;;-2.00;99.90;;;;;;6240268;23;20337;-90
2021/01/11 00:40:04;;;;;;;0.20;0.20;;;-2.00;99.90;;;;;;6240082;23;20393;-87
2021/01/11 00:42:35;;;;;;;0.20;0.20;;;-2.00;99.90;;;;;;6239152;23;20000;-87
2021/01/11 00:45:02;;;;;;;0.20;0.20;;;-2.00;99.90;;;;;;6239146;23;20445;-87
2021/01/11 00:47:28;;;;;;;0.20;0.20;;;-2.00;99.90;;;;;;6212976;23;20008;-87
2021/01/11 00:49:53;;;;;;;0.10;0.10;;;-1.60;99.90;;;;;;6240193;23;20008;-87
2021/01/11 00:52:23;;;;;;;0.20;0.20;;;-1.90;99.90;;;;;;6239387;23;20501;-87
2021/01/11 00:54:59;;;;;;;0.20;0.20;;;-2.20;99.90;;;;;;6239858;23;20008;-87
2021/01/11 00:57:27;;;;;;;0.10;0.10;;;-2.30;99.90;;;;;;6212637;23;20007;-87
2021/01/11 01:00:00;;;;;;;0.10;0.10;;;-2.10;99.90;;;;;;6239708;23;20913;-87
2021/01/11 01:02:36;;;;;;;0.28;0.28;;;-2.00;99.90;;;;;;6212470;23;20055;-87
2021/01/11 01:05:03;;;;;;;0.73;0.73;;;-1.90;99.90;;;;;;6239814;23;20001;-87
2021/01/11 01:07:28;;;;;;;0.13;0.13;;;-1.90;99.90;;;;;;6212698;23;20050;-87
2021/01/11 01:09:54;;;;;;;0.30;0.30;;;-2.00;99.90;;;;;;6212654;23;20012;-87
2021/01/11 01:12:20;;;;;;;1.23;1.13;;;-2.00;99.90;;;;;;6212711;23;20349;-87
2021/01/11 01:14:45;;;;;;;1.58;1.48;;;-1.80;99.90;;;;;;6238551;23;20004;-87
2021/01/11 01:17:11;;;;;;;0.30;0.30;;;-1.70;99.90;;;;;;6239095;23;20000;-87
2021/01/11 01:19:37;;;;;;;0.30;0.30;;;-1.90;99.90;;;;;;6211929;23;20515;-87
2021/01/11 01:22:07;;;;;;;0.20;0.20;;;-2.30;99.90;;;;;;6239426;23;20517;-87
2021/01/11 01:24:37;;;;;;;0.20;0.20;;;-2.50;99.90;;;;;;6212043;23;20058;-87
2021/01/11 01:27:07;;;;;;;0.20;0.20;;;-2.70;99.90;;;;;;6212378;23;20513;-87
2021/01/11 01:29:37;;;;;;;0.10;0.10;;;-2.50;99.90;;;;;;6239183;23;20000;-87
2021/01/11 01:32:06;;;;;;;0.15;0.15;;;-2.40;99.90;;;;;;6212246;23;20008;-86
2021/01/11 01:34:32;;;;;;;0.22;0.22;;;-2.60;99.90;;;;;;6239733;23;20007;-87
2021/01/11 01:36:58;;;;;;;0.30;0.30;;;-2.60;99.90;;;;;;6239341;23;20004;-87
2021/01/11 01:39:23;;;;;;;0.10;0.10;;;-2.70;99.90;;;;;;6212284;23;20099;-88
2021/01/11 01:41:49;;;;;;;0.20;0.20;;;-2.60;99.90;;;;;;6238757;23;20008;-88
2021/01/11 01:44:15;;;;;;;0.20;0.20;;;-2.70;99.90;;;;;;6239393;23;20006;-86
2021/01/11 01:46:41;;;;;;;0.30;0.30;;;-2.60;99.90;;;;;;6238883;23;19996;-87
2021/01/11 01:49:08;;;;;;;0.20;0.20;;;-2.80;99.90;;;;;;6239313;23;20466;-87
2021/01/11 01:51:34;;;;;;;1.10;1.10;;;-2.40;99.90;;;;;;6239304;23;20008;-87
2021/01/11 01:54:00;;;;;;;0.25;0.25;;;-2.60;99.90;;;;;;6238607;23;20065;-87
2021/01/11 01:56:35;;;;;;;0.87;0.87;;;-2.90;99.90;;;;;;6239314;23;20039;-87
2021/01/11 01:59:03;;;;;;;0.20;0.20;;;-3.00;99.90;;;;;;6238892;23;20304;-87
2021/01/11 02:01:29;;;;;;;0.10;0.10;;;-3.00;99.90;;;;;;6212260;23;20739;-87
2021/01/11 02:03:55;;;;;;;0.10;0.10;;;-2.90;99.90;;;;;;6212001;23;20004;-88
2021/01/11 02:06:25;;;;;;;0.75;0.75;;;-3.10;99.90;;;;;;6239191;23;19997;-87
2021/01/11 02:09:04;;;;;;;0.47;0.47;;;-2.70;99.90;;;;;;6212115;23;20060;-87
2021/01/11 02:11:55;;;;;;;0.20;0.20;;;-2.60;99.90;;;;;;6239445;23;20011;-87
2021/01/11 02:14:51;;;;;;;0.10;0.10;;;-2.60;99.90;;;;;;6212449;23;20038;-87
2021/01/11 02:17:23;;;;;;;0.20;0.20;;;-2.50;99.90;;;;;;6239348;23;20050;-88
2021/01/11 02:20:13;;;;;;;0.20;0.20;;;-2.80;99.90;;;;;;6212108;23;20400;-89
2021/01/11 02:23:11;;;;;;;0.13;0.13;;;-3.30;99.90;;;;;;6211854;23;20087;-88
2021/01/11 02:26:09;;;;;;;0.20;0.20;;;-3.30;99.90;;;;;;6239307;23;20003;-88
2021/01/11 02:29:11;;;;;;;0.15;0.15;;;-3.40;99.90;;;;;;6239444;23;20000;-88
2021/01/11 02:31:39;;;;;;;0.17;0.17;;;-3.40;99.90;;;;;;6156248;22;20079;-88
2021/01/11 02:34:06;;;;;;;0.22;0.22;;;-4.00;99.90;;;;;;6211323;23;20000;-87
2021/01/11 02:36:33;;;;;;;0.20;0.20;;;-3.90;99.90;;;;;;6212684;23;20091;-86
2021/01/11 02:38:59;;;;;;;0.20;0.20;;;-3.90;99.90;;;;;;6240465;23;20008;-87
2021/01/11 02:41:25;;;;;;;0.28;0.28;;;-4.00;99.90;;;;;;6213569;23;20357;-87
2021/01/11 02:43:50;;;;;;;0.10;0.10;;;-4.00;99.90;;;;;;6239876;23;20004;-87
2021/01/11 02:46:16;;;;;;;0.20;0.20;;;-4.30;99.90;;;;;;6213688;23;20000;-87
2021/01/11 02:48:51;;;;;;;0.20;0.20;;;-4.30;99.90;;;;;;6213860;23;20008;-87
2021/01/11 02:51:26;;;;;;;0.20;0.20;;;-4.10;99.90;;;;;;6212988;23;20004;-87
2021/01/11 02:54:41;;;;;;;2.80;2.08;;;-4.20;99.90;;;;;;6240069;23;20004;-88
2021/01/11 02:57:33;;;;;;;0.20;0.20;;;-4.20;99.90;;;;;;6064790;23;20048;-88
2021/01/11 03:00:04;;;;;;;0.20;0.20;;;-4.00;99.90;;;;;;6089382;23;20010;-87
2021/01/11 03:02:33;;;;;;;0.17;0.17;;;-4.10;99.90;;;;;;6064714;23;20030;-87
2021/01/11 03:05:01;;;;;;;0.13;0.13;;;-4.20;99.90;;;;;;6089128;23;20452;-86
2021/01/11 03:07:26;;;;;;;0.20;0.20;;;-4.20;99.90;;;;;;6088715;23;20026;-86
2021/01/11 03:09:52;;;;;;;0.20;0.20;;;-4.20;99.90;;;;;;6089229;23;20006;-87
2021/01/11 03:12:18;;;;;;;0.35;0.35;;;-3.90;99.90;;;;;;6088876;23;20070;-87
2021/01/11 03:14:44;;;;;;;0.10;0.10;;;-3.90;99.90;;;;;;6089436;23;20006;-87
2021/01/11 03:17:10;;;;;;;0.10;0.10;;;-3.90;99.90;;;;;;6089269;23;20014;-87
2021/01/11 03:19:36;;;;;;;0.20;0.20;;;-3.80;99.90;;;;;;6088367;23;20037;-88
2021/01/11 03:22:03;;;;;;;0.10;0.10;;;-3.50;99.90;;;;;;6088997;23;20010;-88
2021/01/11 03:24:35;;;;;;;4.28;0.98;;;-3.40;99.90;;;;;;6088402;23;20146;-88
2021/01/11 03:27:04;;;;;;;0.47;0.47;;;-3.40;99.90;;;;;;6089004;23;20046;-88
2021/01/11 03:29:34;;;;;;;0.20;0.20;;;-3.50;99.90;;;;;;6087947;23;20452;-88
2021/01/11 03:32:00;;;;;;;0.82;0.82;;;-3.40;99.90;;;;;;6088198;23;20014;-88
2021/01/11 03:34:25;;;;;;;16.77;1.38;;;-3.70;99.90;;;;;;6186565;23;20008;-88
2021/01/11 03:36:51;;;;;;;3.00;2.75;;;-3.50;99.90;;;;;;6239653;23;20094;-88
2021/01/11 03:39:17;;;;;;;0.20;0.20;;;-3.50;99.90;;;;;;6240247;23;20016;-88
2021/01/11 03:41:46;;;;;;;0.93;0.82;;;-3.20;99.90;;;;;;6239563;23;20031;-87
2021/01/11 03:44:12;;;;;;;1.92;1.10;;;-3.50;99.90;;;;;;6213228;23;20000;-87
2021/01/11 03:46:38;;;;;;;0.20;0.20;;;-3.40;99.90;;;;;;6240223;23;20004;-88
2021/01/11 03:49:04;;;;;;;0.40;0.40;;;-3.40;99.90;;;;;;6239878;23;20090;-87
2021/01/11 03:51:30;;;;;;;0.10;0.10;;;-3.50;99.90;;;;;;6240390;23;20007;-89
2021/01/11 03:54:07;;;;;;;0.10;0.10;;;-3.60;99.90;;;;;;6239701;23;20004;-89
2021/01/11 03:56:36;;;;;;;;;;;-3.70;99.90;;;;;;6213725;23;20450;-88
2021/01/11 03:59:06;;;;;;;0.10;0.10;;;-3.80;99.90;;;;;;6239780;23;19907;-89
2021/01/11 04:01:36;;;;;;;1.27;0.63;;;-3.60;99.90;;;;;;6212966;23;20055;-86
2021/01/11 04:04:02;;;;;;;0.20;0.20;;;-3.70;99.90;;;;;;6240064;23;20433;-86
2021/01/11 04:06:27;;;;;;;0.60;0.60;;;-3.50;99.90;;;;;;6213265;23;20050;-86
2021/01/11 04:08:53;;;;;;;0.35;0.35;;;-3.40;99.90;;;;;;6240111;23;20767;-86
2021/01/11 04:11:20;;;;;;;0.28;0.28;;;-3.60;99.90;;;;;;6213384;23;20449;-86
2021/01/11 04:13:49;;;;;;;0.10;0.10;;;-3.50;99.90;;;;;;6239838;23;20000;-86
2021/01/11 04:16:16;;;;;;;0.52;0.52;;;-3.60;99.90;;;;;;6212632;23;20004;-87
2021/01/11 04:18:42;;;;;;;0.10;0.10;;;-3.60;99.90;;;;;;6240069;23;20031;-86
2021/01/11 04:21:13;;;;;;;0.20;0.20;;;-3.70;99.90;;;;;;6239651;23;20030;-87
2021/01/11 04:23:39;;;;;;;0.10;0.10;;;-3.60;99.90;;;;;;6240087;23;20028;-87
2021/01/11 04:26:15;;;;;;;0.30;0.30;;;-3.70;99.90;;;;;;6239821;23;20042;-87
2021/01/11 04:28:42;;;;;;;2.88;1.48;;;-3.80;99.90;;;;;;6240569;23;20000;-88
2021/01/11 04:31:07;;;;;;;;;;;-3.90;99.90;;;;;;6238833;22;20728;-87
2021/01/11 04:33:34;;;;;;;4.20;1.20;;;-4.40;99.90;;;;;;6240407;23;19907;-87
2021/01/11 04:35:59;;;;;;;0.50;0.50;;;-4.40;99.90;;;;;;6213118;23;20018;-87
2021/01/11 04:38:25;;;;;;;0.20;0.20;;;-4.30;99.90;;;;;;6239809;23;20075;-87
2021/01/11 04:40:51;;;;;;;0.20;0.20;;;-4.20;99.90;;;;;;6239638;23;20016;-87
2021/01/11 04:43:18;;;;;;;0.63;0.63;;;-4.40;99.90;;;;;;6212441;23;20464;-87
2021/01/11 04:45:45;;;;;;;1.45;0.77;;;-4.20;99.90;;;;;;6213042;23;20014;-87
2021/01/11 04:48:12;;;;;;;0.75;0.75;;;-4.40;99.90;;;;;;6238957;23;20080;-86
2021/01/11 04:50:38;;;;;;;;;;;-4.60;99.90;;;;;;6240591;23;20058;-87
2021/01/11 04:53:19;;;;;;;0.35;0.35;;;-4.40;99.90;;;;;;6212617;23;20284;-86
2021/01/11 04:56:00;;;;;;;0.10;0.10;;;-4.40;99.90;;;;;;6240101;23;20339;-88
2021/01/11 04:59:06;;;;;;;0.73;0.73;;;-4.40;99.90;;;;;;6239444;23;20008;-86
2021/01/11 05:01:35;;;;;;;0.20;0.20;;;-4.40;99.90;;;;;;6231105;23;20007;-86
2021/01/11 05:04:02;;;;;;;0.38;0.38;;;-4.30;99.90;;;;;;6239790;23;20004;-85
2021/01/11 05:06:29;;;;;;;0.20;0.20;;;-4.40;99.90;;;;;;6239398;23;20028;-85
2021/01/11 05:09:08;;;;;;;0.85;0.85;;;-4.60;99.90;;;;;;6240085;23;20039;-86
2021/01/11 05:11:34;;;;;;;0.10;0.10;;;-4.70;99.90;;;;;;6212562;23;20373;-86
2021/01/11 05:14:00;;;;;;;0.77;0.77;;;-5.00;99.90;;;;;;6239430;23;20004;-86
2021/01/11 05:16:26;;;;;;;0.30;0.30;;;-5.00;99.90;;;;;;6239855;23;20054;-86
2021/01/11 05:18:57;;;;;;;0.63;0.63;;;-4.70;99.90;;;;;;6239775;23;20376;-86
2021/01/11 05:21:41;;;;;;;0.28;0.28;;;-4.90;99.90;;;;;;6240161;23;20004;-85
2021/01/11 05:24:42;;;;;;;0.73;0.68;;;-5.10;99.90;;;;;;6239667;23;20000;-88
2021/01/11 05:27:27;;;;;;;0.47;0.47;;;-5.20;99.90;;;;;;6213746;23;20070;-91
2021/01/11 05:29:53;;;;;;;0.10;0.10;;;-5.10;99.90;;;;;;6214651;23;20035;-92
2021/01/11 05:32:28;;;;;;;0.30;0.30;;;-5.50;99.90;;;;;;6213339;23;20066;-91
2021/01/11 05:34:54;;;;;;;1.85;1.15;;;-5.20;99.90;;;;;;6239540;23;20066;-89
2021/01/11 05:37:40;;;;;;;0.75;0.75;;;-5.20;99.90;;;;;;6214306;23;20388;-90
2021/01/11 05:40:17;;;;;;;0.25;0.25;;;-5.50;99.90;;;;;;6214956;23;20016;-90
2021/01/11 05:42:47;;;;;;;0.30;0.30;;;-5.50;99.90;;;;;;6212706;23;20404;-90
2021/01/11 05:45:19;;;;;;;0.57;0.57;;;-5.20;99.90;;;;;;6240459;23;20093;-90
2021/01/11 05:47:58;;;;;;;0.20;0.20;;;-5.30;99.90;;;;;;6241548;23;20003;-91
2021/01/11 05:50:36;;;;;;;0.10;0.10;;;-5.10;99.90;;;;;;6242687;23;20075;-90
2021/01/11 05:53:13;;;;;;;0.10;0.10;;;-5.20;99.90;;;;;;6217204;23;20333;-88
2021/01/11 05:55:39;;;;;;;0.93;0.93;;;-5.20;99.90;;;;;;6216627;23;20039;-92
2021/01/11 05:58:05;;;;;;;0.75;0.75;;;-5.30;99.90;;;;;;6214760;23;20008;-89
2021/01/11 06:00:36;;;;;;;0.10;0.10;;;-5.40;99.90;;;;;;6242605;23;20050;-93
2021/01/11 06:03:05;;;;;;;0.47;0.47;;;-5.40;99.90;;;;;;6218666;23;20469;-92
2021/01/11 06:05:32;;;;;;;2.72;0.75;;;-5.30;99.90;;;;;;6216697;23;20058;-90
2021/01/11 06:07:58;;;;;;;;;;;-5.30;99.90;;;;;;6215930;23;20008;-90
2021/01/11 06:10:25;;;;;;;0.32;0.32;;;-5.60;99.90;;;;;;6216436;23;19938;-91
2021/01/11 06:12:51;;;;;;;0.20;0.20;;;-5.40;99.90;;;;;;6218657;23;20368;-91
2021/01/11 06:15:19;;;;;;;0.70;0.68;;;-5.40;99.90;;;;;;6218955;23;20091;-91
2021/01/11 06:17:51;;;;;;;0.17;0.17;;;-5.60;99.90;;;;;;6217468;23;20036;-91
2021/01/11 06:20:25;;;;;;;0.95;0.93;;;-5.60;99.90;;;;;;6218044;23;20008;-94
2021/01/11 06:22:50;;;;;;;0.30;0.30;;;-5.70;99.90;;;;;;6221109;23;20031;-94
2021/01/11 06:25:31;;;;;;;13.52;0.88;;;-5.70;99.90;;;;;;6221549;23;20049;-96
2021/01/11 06:28:21;;;;;;;0.90;0.90;;;-5.80;99.90;;;;;;6221416;23;20010;-94
2021/01/11 06:30:47;;;;;;;0.52;0.52;;;-5.90;99.90;;;;;;6220201;22;20000;-92
2021/01/11 06:33:14;;;;;;;0.40;0.40;;;-5.70;99.90;;;;;;6221566;23;20000;-94
2021/01/11 06:35:45;;;;;;;;;;;-5.60;99.90;;;;;;6220598;23;20345;-93
2021/01/11 06:38:28;;;;;;;0.45;0.45;;;-5.80;99.90;;;;;;6220688;23;19899;-93
2021/01/11 06:41:14;;;;;;;0.10;0.10;;;-5.80;99.90;;;;;;6220477;23;20020;-93
2021/01/11 06:43:51;;;;;;;6.32;2.47;;;-5.60;99.90;;;;;;6220702;23;20337;-93
2021/01/11 06:46:29;;;;;;;0.47;0.47;;;-5.80;99.90;;;;;;6220840;23;20000;-93
2021/01/11 06:49:00;;;;;;;0.10;0.10;;;-5.80;99.90;;;;;;6219888;23;20015;-94
2021/01/11 06:51:51;;;;;;;0.65;0.65;;;-5.70;99.90;;;;;;6219400;23;20059;-90
2021/01/11 06:54:18;;;;;;;0.10;0.10;;;-5.20;99.90;;;;;;6219104;23;20004;-93
2021/01/11 06:56:45;;;;;;;0.10;0.10;;;-5.10;99.90;;;;;;6216535;23;20011;-91
2021/01/11 06:59:16;;;;;;;0.20;0.20;;;-5.00;99.90;;;;;;6214443;23;20004;-88
2021/01/11 07:01:44;;;;;;;0.17;0.17;;;-5.10;99.90;;;;;;6214322;23;20115;-89
2021/01/11 07:04:32;;;;;;;1.10;1.10;;;-5.50;99.90;;;;;;6214439;23;20008;-89
2021/01/11 07:07:02;;;;;;;0.20;0.20;;;-5.70;99.90;;;;;;6214387;23;20083;-89
2021/01/11 07:09:29;;;;;;;0.90;0.90;;;-5.70;99.90;;;;;;6240759;23;20011;-89
2021/01/11 07:12:03;;;;;;;2.78;2.58;;;-5.90;99.90;;;;;;6241087;23;20011;-91
2021/01/11 07:14:54;;;;;;;0.13;0.13;;;-5.70;99.90;;;;;;6192695;23;20015;-93
2021/01/11 07:17:38;;;;;;;0.20;0.20;;;-5.80;99.90;;;;;;6198162;23;20374;-93
2021/01/11 07:20:09;;;;;;;0.20;0.20;;;-5.90;99.90;;;;;;6217914;23;20465;-92
2021/01/11 07:22:38;;;;;;;0.20;0.20;;;-6.00;99.90;;;;;;6215621;23;20007;-91
2021/01/11 07:25:14;;;;;;;1.48;1.20;;;-5.90;99.90;;;;;;6217438;23;20036;-93
2021/01/11 07:27:40;;;;;;;5.03;1.80;;;-5.70;99.90;;;;;;6218623;23;20011;-93
2021/01/11 07:30:06;;;;;;;0.40;0.40;;;-5.70;99.90;;;;;;6217690;23;20410;-91
2021/01/11 07:32:32;;;;;;;0.20;0.20;;;-5.90;99.90;;;;;;6214640;23;20699;-90
2021/01/11 07:34:59;;;;;;;1.45;1.35;;;-5.90;99.90;;;;;;6215606;23;20009;-91
2021/01/11 07:37:25;;;;;;;;;;;-5.90;99.90;;;;;;6219025;23;20346;-92
2021/01/11 07:39:51;;;;;;;0.10;0.10;;;-5.90;99.90;;;;;;6203338;23;19918;-93
2021/01/11 07:42:20;;;;;;;0.90;0.90;;;-5.80;99.90;;;;;;6184959;23;20445;-90
2021/01/11 07:44:46;;;;;;;2.47;2.28;;;-5.90;99.90;;;;;;6188476;23;20094;-94
2021/01/11 07:47:13;;;;;;;0.13;0.13;;;-6.00;99.90;;;;;;6189080;23;20001;-94
2021/01/11 07:49:43;;;;;;;0.30;0.30;;;-5.90;99.90;;;;;;6189083;23;20004;-93
2021/01/11 07:52:15;;;;;;;0.30;0.30;;;-5.70;99.90;;;;;;6184852;23;20047;-91
2021/01/11 07:54:41;;;;;;;0.10;0.10;;;-5.60;99.90;;;;;;6183954;23;20004;-90
2021/01/11 07:57:14;;;;;;;0.10;0.10;;;-5.60;99.90;;;;;;6184225;23;20088;-91
2021/01/11 07:59:44;;;;;;;0.98;0.98;;;-5.10;99.90;;;;;;6185820;23;20009;-92
2021/01/11 08:02:14;;;;;;;0.20;0.20;;;-2.30;99.90;;;;;;6186405;23;20482;-92
2021/01/11 08:04:42;;;;;;;0.10;0.10;;;0.00;99.90;;;;;;6186209;23;20001;-93
2021/01/11 08:07:10;;;;;;;1.00;0.95;;;1.30;99.90;;;;;;6186092;23;20019;-92
2021/01/11 08:09:41;;;;;;;0.50;0.50;;;2.10;99.90;;;;;;6186219;23;20088;-93
2021/01/11 08:12:07;;;;;;;0.30;0.30;;;2.80;99.90;;;;;;6186481;23;20062;-93
2021/01/11 08:14:33;;;;;;;0.20;0.20;;;3.60;99.90;;;;;;6214266;23;20087;-92
2021/01/11 08:17:01;;;;;;;0.10;0.10;;;4.70;99.90;;;;;;6187305;23;20039;-94
2021/01/11 08:19:27;;;;;;;0.43;0.43;;;4.70;99.90;;;;;;6214797;23;20032;-94
2021/01/11 08:22:01;;;;;;;1.08;1.08;;;4.80;99.90;;;;;;6189263;23;20013;-94
2021/01/11 08:24:28;;;;;;;0.50;0.50;;;5.90;99.90;;;;;;6189871;23;20051;-94
2021/01/11 08:26:57;;;;;;;;;;;6.30;99.90;;;;;;6190010;23;20007;-95
2021/01/11 08:29:23;;;;;;;0.30;0.30;;;5.30;99.90;;;;;;6190123;23;19900;-95
2021/01/11 08:31:49;;;;;;;0.20;0.20;;;6.70;99.90;;;;;;6190474;23;20087;-94
2021/01/11 08:34:15;;;;;;;0.30;0.30;;;7.10;99.90;;;;;;6189356;23;20009;-94
2021/01/11 08:36:40;;;;;;;0.50;0.50;;;6.00;99.90;;;;;;6190069;23;20087;-96
2021/01/11 08:39:12;;;;;;;0.20;0.20;;;6.30;99.90;;;;;;6192823;23;20062;-95
2021/01/11 08:41:42;;;;;;;0.20;0.20;;;8.50;99.90;;;;;;6221207;23;20008;-95
2021/01/11 08:44:24;;;;;;;0.63;0.63;;;8.20;99.90;;;;;;6223387;23;20027;-95
2021/01/11 08:47:04;;;;;;;0.20;0.20;;;6.30;99.90;;;;;;6227440;23;20000;-96
2021/01/11 08:49:31;;;;;;;1.40;1.35;;;6.30;99.90;;;;;;6229993;23;20011;-96
2021/01/11 08:52:12;;;;;;;3.72;0.80;;;7.80;99.90;;;;;;6232039;23;20429;-96
2021/01/11 08:54:40;;;;;;;1.17;1.17;;;9.10;99.90;;;;;;6209776;23;20028;-96
2021/01/11 08:57:12;;;;;;;4.28;1.25;;;9.20;99.90;;;;;;6212030;23;20012;-96
2021/01/11 09:00:15;;;;;;;5.57;1.73;;;10.60;99.90;;;;;;6267568;23;19989;-96
2021/01/11 09:03:47;;;;;;;0.82;0.82;;;11.20;99.90;;;;;;6267736;23;20000;-96
2021/01/11 09:40:02;;;;;;;0.20;0.20;;;7.30;99.90;;;;;;6305445;22;20030;-96
2021/01/11 09:48:05;;;;;;;0.10;0.10;;;4.70;99.90;;;;;;6198181;23;20099;-95
2021/01/11 09:50:32;;;;;;;0.10;0.10;;;6.30;99.90;;;;;;6174312;23;20009;-96
2021/01/11 09:53:00;;;;;;;0.43;0.43;;;7.50;99.90;;;;;;6173297;23;20065;-96
2021/01/11 09:55:26;;;;;;;0.10;0.10;;;7.10;99.90;;;;;;6168785;23;20008;-96
2021/01/11 09:57:52;;;;;;;0.73;0.73;;;6.20;99.90;;;;;;6169997;23;20012;-96
2021/01/11 10:00:19;;;;;;;0.25;0.25;;;7.70;99.90;;;;;;6170119;23;20009;-95
2021/01/11 10:02:50;;;;;;;1.13;1.08;;;7.90;99.90;;;;;;6164795;23;20028;-95
2021/01/11 10:05:17;;;;;;;0.40;0.40;;;7.70;99.90;;;;;;6162961;23;20001;-96
2021/01/11 10:07:46;;;;;;;0.15;0.15;;;6.80;99.90;;;;;;6163926;23;20477;-96
2021/01/11 10:10:15;;;;;;;0.20;0.20;;;6.40;99.90;;;;;;6169723;23;20044;-96
2021/01/11 10:12:42;;;;;;;0.22;0.22;;;5.90;99.90;;;;;;6188727;23;20012;-95
2021/01/11 10:15:23;;;;;;;0.25;0.25;;;6.30;99.90;;;;;;6176448;23;20002;-96
2021/01/11 10:17:53;;;;;;;0.40;0.40;;;5.90;99.90;;;;;;6204385;23;20001;-96
2021/01/11 10:20:20;;;;;;;1.55;1.05;;;7.00;99.90;;;;;;6193031;23;20338;-95
2021/01/11 10:22:46;;;;;;;0.10;0.10;;;7.10;99.90;;;;;;6166623;23;19997;-95
2021/01/11 10:25:15;;;;;;;2.00;1.08;;;7.20;99.90;;;;;;6164388;23;20001;-96
2021/01/11 10:27:41;;;;;;;0.30;0.30;;;7.10;99.90;;;;;;6164220;23;20005;-96
2021/01/11 10:30:08;;;;;;;1.75;0.75;;;6.90;99.90;;;;;;6163530;23;20084;-96
2021/01/11 10:32:33;;;;;;;0.25;0.25;;;6.60;99.90;;;;;;6162662;23;20005;-96
2021/01/11 10:34:59;;;;;;;0.20;0.20;;;7.30;99.90;;;;;;6162580;23;20009;-96
2021/01/11 10:37:26;;;;;;;0.77;0.57;;;5.60;99.90;;;;;;6164626;23;20012;-96
2021/01/11 10:39:53;;;;;;;1.88;0.60;;;5.90;99.90;;;;;;6164990;23;20009;-96
2021/01/11 10:42:19;;;;;;;0.98;0.63;;;4.20;99.90;;;;;;6165649;23;20005;-96
2021/01/11 10:44:48;;;;;;;0.40;0.40;;;5.00;99.90;;;;;;6173774;23;20040;-96
2021/01/11 10:47:34;;;;;;;0.40;0.40;;;5.70;99.90;;;;;;6196885;23;20044;-96
2021/01/11 10:50:00;;;;;;;0.35;0.35;;;5.50;99.90;;;;;;6197583;23;20008;-96
2021/01/11 10:52:25;;;;;;;0.50;0.50;;;6.30;99.90;;;;;;6197282;23;20000;-96
2021/01/11 10:54:51;;;;;;;0.93;0.93;;;6.50;99.90;;;;;;6195358;23;20000;-95
2021/01/11 10:57:17;;;;;;;0.20;0.20;;;6.70;99.90;;;;;;6191540;23;20430;-95
2021/01/11 10:59:43;;;;;;;0.47;0.47;;;5.90;99.90;;;;;;6192063;23;20426;-95
2021/01/11 11:02:09;;;;;;;0.90;0.90;;;6.90;99.90;;;;;;6191837;23;20001;-95
2021/01/11 11:04:36;;;;;;;0.40;0.40;;;6.60;99.90;;;;;;6192452;23;20005;-95
2021/01/11 11:07:03;;;;;;;0.32;0.32;;;7.00;99.90;;;;;;6192502;23;20000;-96
2021/01/11 11:09:29;;;;;;;0.13;0.13;;;7.40;99.90;;;;;;6192395;23;20043;-95
2021/01/11 11:11:55;;;;;;;0.32;0.32;;;8.00;99.90;;;;;;6192337;23;20004;-95
2021/01/11 11:14:21;;;;;;;0.43;0.43;;;8.70;99.90;;;;;;6192122;23;20009;-95
2021/01/11 11:16:47;;;;;;;0.50;0.50;;;10.80;99.90;;;;;;6190779;23;20059;-94
2021/01/11 11:19:13;;;;;;;0.10;0.10;;;8.60;99.90;;;;;;6190797;23;20012;-94
2021/01/11 11:21:40;;;;;;;0.40;0.40;;;7.90;99.90;;;;;;6191151;23;20005;-95
2021/01/11 11:24:06;;;;;;;0.50;0.50;;;10.10;99.90;;;;;;6191479;23;20001;-94
2021/01/11 11:26:31;;;;;;;2.65;0.95;;;11.00;99.90;;;;;;6190587;23;20005;-95
2021/01/11 11:28:57;;;;;;;0.20;0.20;;;12.70;99.90;;;;;;6190907;23;20009;-94
2021/01/11 11:31:23;;;;;;;0.57;0.57;;;11.80;99.90;;;;;;6191128;23;20004;-94
2021/01/11 11:33:48;;;;;;;1.05;1.05;;;11.00;99.90;;;;;;6191029;23;20032;-95
2021/01/11 11:36:18;;;;;;;0.20;0.20;;;11.80;99.90;;;;;;6190399;23;20055;-94
2021/01/11 11:38:43;;;;;;;0.40;0.40;;;10.30;99.90;;;;;;6190587;23;20004;-95
2021/01/11 11:41:09;;;;;;;0.57;0.57;;;11.60;99.90;;;;;;6190756;23;20035;-94
2021/01/11 11:43:35;;;;;;;1.02;1.00;;;11.80;99.90;;;;;;6190974;23;20032;-96
2021/01/11 11:46:00;;;;;;;0.65;0.65;;;11.70;99.90;;;;;;6191121;23;20001;-93
2021/01/11 11:48:26;;;;;;;0.93;0.85;;;11.30;99.90;;;;;;6190262;23;20012;-94
2021/01/11 11:50:52;;;;;;;0.82;0.82;;;12.10;99.90;;;;;;6191110;23;20087;-94
2021/01/11 11:53:18;;;;;;;1.38;1.27;;;10.10;99.90;;;;;;6190887;23;20008;-94
2021/01/11 11:55:44;;;;;;;0.65;0.65;;;9.40;99.90;;;;;;6190982;23;20102;-94
2021/01/11 11:58:09;;;;;;;0.10;0.10;;;8.90;99.90;;;;;;6190560;23;20012;-94
2021/01/11 12:00:35;;;;;;;0.20;0.20;;;7.40;99.90;;;;;;6189343;23;20078;-92
2021/01/11 12:03:01;;;;;;;0.38;0.38;;;6.00;99.90;;;;;;6189006;23;20000;-93
2021/01/11 12:05:27;;;;;;;0.40;0.40;;;3.60;99.90;;;;;;6189622;23;20011;-94
2021/01/11 12:07:53;;;;;;;0.93;0.93;;;2.20;99.90;;;;;;6189591;23;20033;-92
2021/01/11 12:10:19;;;;;;;0.32;0.32;;;2.20;99.90;;;;;;6189600;23;20011;-92
2021/01/11 12:12:48;;;;;;;0.52;0.50;;;2.10;99.90;;;;;;6190325;23;20008;-94
2021/01/11 12:15:15;;;;;;;4.78;1.42;;;2.40;99.90;;;;;;6190432;23;20008;-94
2021/01/11 12:17:43;;;;;;;0.60;0.60;;;2.10;99.90;;;;;;6190532;23;20005;-94
2021/01/11 12:20:09;;;;;;;0.10;0.10;;;1.80;99.90;;;;;;6190142;23;20009;-93
2021/01/11 12:22:38;;;;;;;1.85;1.75;;;1.90;99.90;;;;;;6190883;23;20005;-95
2021/01/11 12:25:05;;;;;;;1.73;1.52;;;2.10;99.90;;;;;;6190290;23;20000;-93
2021/01/11 12:27:32;;;;;;;0.10;0.10;;;2.00;99.90;;;;;;6190548;23;20007;-93
2021/01/11 12:29:58;;;;;;;0.20;0.20;;;2.00;99.90;;;;;;6190352;23;20084;-94
2021/01/11 12:32:24;;;;;;;0.43;0.40;;;2.00;99.90;;;;;;6190525;23;20059;-93
2021/01/11 12:34:50;;;;;;;0.40;0.40;;;1.70;99.90;;;;;;6190059;23;20008;-93
2021/01/11 12:37:17;;;;;;;0.35;0.35;;;1.70;99.90;;;;;;6190132;23;20005;-94
2021/01/11 12:39:43;;;;;;;;;;;1.80;99.90;;;;;;6190639;23;20091;-94
2021/01/11 12:42:11;;;;;;;0.63;0.63;;;1.80;99.90;;;;;;6189921;23;19982;-94
2021/01/11 12:44:38;;;;;;;2.50;1.95;;;1.80;99.90;;;;;;6190594;23;20028;-94
2021/01/11 12:47:04;;;;;;;1.13;1.13;;;1.80;99.90;;;;;;6190391;23;20001;-95
2021/01/11 12:49:30;;;;;;;0.90;0.63;;;1.80;99.90;;;;;;6189763;23;20024;-93
2021/01/11 12:51:57;;;;;;;0.30;0.30;;;1.60;99.90;;;;;;6190627;23;20004;-94
2021/01/11 12:54:23;;;;;;;0.68;0.68;;;1.80;99.90;;;;;;6190627;23;20009;-94
2021/01/11 12:56:49;;;;;;;1.07;1.07;;;2.00;99.90;;;;;;6190340;23;20005;-95
2021/01/11 12:59:15;;;;;;;0.65;0.65;;;2.00;99.90;;;;;;6189902;23;20255;-93
2021/01/11 13:01:44;;;;;;;0.65;0.65;;;2.00;99.90;;;;;;6189570;23;20000;-92
2021/01/11 13:04:10;;;;;;;1.85;0.77;;;1.90;99.90;;;;;;6187962;23;20478;-93
2021/01/11 13:06:39;;;;;;;0.43;0.43;;;1.90;99.90;;;;;;6188388;23;20008;-94
2021/01/11 13:09:06;;;;;;;2.03;1.92;;;1.70;99.90;;;;;;6188633;23;20104;-94
2021/01/11 13:11:33;;;;;;;0.90;0.90;;;1.80;99.90;;;;;;6188731;23;20008;-94
2021/01/11 13:14:01;;;;;;;0.17;0.17;;;1.60;99.90;;;;;;6188378;23;20095;-93
2021/01/11 13:16:32;;;;;;;0.30;0.30;;;1.50;99.90;;;;;;6189779;23;20032;-95
2021/01/11 13:19:00;;;;;;;0.20;0.20;;;1.30;99.90;;;;;;6190141;23;20419;-94
2021/01/11 13:21:27;;;;;;;0.73;0.73;;;1.40;99.90;;;;;;6190330;23;20005;-94
2021/01/11 13:26:32;;;;;;;0.63;0.63;;;1.50;99.90;;;;;;6221635;22;19915;-95
2021/01/11 13:29:00;;;;;;;0.32;0.32;;;1.80;99.90;;;;;;6189684;23;20005;-95
2021/01/11 13:31:27;;;;;;;0.38;0.38;;;1.50;99.90;;;;;;6192925;23;20009;-95
2021/01/11 13:33:54;;;;;;;0.38;0.38;;;1.50;99.90;;;;;;6190302;23;20409;-94
2021/01/11 13:36:22;;;;;;;0.30;0.30;;;1.50;99.90;;;;;;6189592;23;20008;-95
2021/01/11 13:38:48;;;;;;;6.55;3.88;;;1.60;99.90;;;;;;6189925;23;20333;-95
2021/01/11 13:41:14;;;;;;;0.95;0.95;;;1.60;99.90;;;;;;6189967;23;20342;-95
2021/01/11 13:43:41;;;;;;;0.85;0.85;;;1.60;99.90;;;;;;6165356;23;20028;-96
2021/01/11 13:46:07;;;;;;;0.50;0.50;;;1.50;99.90;;;;;;6190028;23;20329;-95
2021/01/11 13:48:33;;;;;;;0.85;0.85;;;1.40;99.90;;;;;;6190098;23;20091;-95